createdAt,value
2019-03-12T00:00:31.916Z,16.74
2019-03-12T00:01:32.145Z,16.74
2019-03-12T00:02:32.128Z,16.64
2019-03-12T00:03:32.111Z,16.74
2019-03-12T00:04:32.088Z,16.64
2019-03-12T00:05:32.068Z,16.45
2019-03-12T00:06:32.050Z,16.36
2019-03-12T00:07:32.037Z,16.36
2019-03-12T00:08:32.012Z,16.64
2019-03-12T00:09:38.262Z,16.26
2019-03-12T00:10:31.976Z,16.55
2019-03-12T00:11:31.974Z,16.64
2019-03-12T00:12:31.944Z,16.36
2019-03-12T00:13:31.921Z,16.45
2019-03-12T00:14:31.655Z,16.45
2019-03-12T00:15:31.888Z,16.64
2019-03-12T00:16:31.871Z,16.83
2019-03-12T00:17:31.886Z,16.93
2019-03-12T00:18:31.833Z,16.55
2019-03-12T00:19:31.809Z,16.64
2019-03-12T00:20:31.796Z,16.74
2019-03-12T00:21:31.774Z,17.3
2019-03-12T00:22:31.753Z,17.58
2019-03-12T00:23:31.737Z,17.77
2019-03-12T00:24:31.714Z,17.77
2019-03-12T00:25:31.698Z,19.67
2019-03-12T00:26:31.678Z,19.76
2019-03-12T00:27:31.661Z,20.14
2019-03-12T00:28:31.642Z,19.95
2019-03-12T00:29:31.624Z,20.32
2019-03-12T00:30:31.603Z,21.08
2019-03-12T00:31:31.586Z,20.61
2019-03-12T00:32:31.566Z,21.37
2019-03-12T00:33:31.547Z,22.03
2019-03-12T00:34:31.530Z,21.94
2019-03-12T00:35:31.513Z,22.78
2019-03-12T00:36:31.493Z,23.16
2019-03-12T00:37:31.489Z,23.73
2019-03-12T00:38:31.462Z,24.21
2019-03-12T00:39:31.444Z,25.05
2019-03-12T00:40:31.426Z,25.24
2019-03-12T00:41:31.399Z,25.9
2019-03-12T00:42:31.387Z,26
2019-03-12T00:43:31.388Z,26.47
2019-03-12T00:44:31.343Z,26.76
2019-03-12T00:45:31.324Z,26.85
2019-03-12T00:46:31.307Z,26.28
2019-03-12T00:47:31.062Z,26.38
2019-03-12T00:48:31.274Z,26.85
2019-03-12T00:49:31.256Z,27.14
2019-03-12T00:50:30.985Z,26.66
2019-03-12T00:51:31.214Z,26.57
2019-03-12T00:52:31.194Z,26.95
2019-03-12T00:53:31.188Z,27.04
2019-03-12T00:54:31.163Z,27.04
2019-03-12T00:55:31.142Z,27.33
2019-03-12T00:56:31.120Z,27.8
2019-03-12T00:57:31.108Z,28.27
2019-03-12T00:58:31.083Z,27.98
2019-03-12T00:59:31.068Z,27.61
2019-03-12T01:00:31.056Z,27.23
2019-03-12T01:01:31.033Z,26.95
2019-03-12T01:02:30.764Z,26.76
2019-03-12T01:03:30.993Z,26.66
2019-03-12T01:04:30.975Z,26.47
2019-03-12T01:05:30.954Z,26
2019-03-12T01:06:30.700Z,25.52
2019-03-12T01:07:30.924Z,25.24
2019-03-12T01:08:30.904Z,24.96
2019-03-12T01:09:30.877Z,24.3
2019-03-12T01:10:30.612Z,24.21
2019-03-12T01:11:30.844Z,24.02
2019-03-12T01:12:30.827Z,23.16
2019-03-12T01:13:30.803Z,22.69
2019-03-12T01:14:30.791Z,22.97
2019-03-12T01:15:30.779Z,22.69
2019-03-12T01:16:30.750Z,22.78
2019-03-12T01:17:30.731Z,23.16
2019-03-12T01:18:30.711Z,23.45
2019-03-12T01:19:30.693Z,23.26
2019-03-12T01:20:30.677Z,23.07
2019-03-12T01:21:30.660Z,22.69
2019-03-12T01:22:30.645Z,22.69
2019-03-12T01:23:30.634Z,23.26
2019-03-12T01:24:30.354Z,24.3
2019-03-12T01:25:30.584Z,24.87
2019-03-12T01:26:30.562Z,25.81
2019-03-12T01:27:30.574Z,26.19
2019-03-12T01:28:30.526Z,26.66
2019-03-12T01:29:30.510Z,26.76
2019-03-12T01:30:30.489Z,26.76
2019-03-12T01:31:30.472Z,26.76
2019-03-12T01:32:30.453Z,26.28
2019-03-12T01:33:30.445Z,26.19
2019-03-12T01:34:30.565Z,26.19
2019-03-12T01:35:30.399Z,26.09
2019-03-12T01:36:30.377Z,26
2019-03-12T01:37:30.357Z,26.19
2019-03-12T01:38:30.339Z,26
2019-03-12T01:39:30.324Z,25.81
2019-03-12T01:40:30.056Z,25.71
2019-03-12T01:41:30.041Z,25.62
2019-03-12T01:42:30.268Z,25.05
2019-03-12T01:43:30.252Z,25.43
2019-03-12T01:44:30.238Z,25.43
2019-03-12T01:45:30.211Z,25.9
2019-03-12T01:46:30.196Z,26.19
2019-03-12T01:47:30.175Z,26.47
2019-03-12T01:48:30.154Z,26.19
2019-03-12T01:49:30.136Z,26.76
2019-03-12T01:50:30.119Z,26.85
2019-03-12T01:51:33.500Z,27.33
2019-03-12T01:52:30.080Z,27.61
2019-03-12T01:53:30.062Z,28.36
2019-03-12T01:54:30.048Z,28.84
2019-03-12T01:55:30.026Z,28.74
2019-03-12T01:56:29.766Z,29.12
2019-03-12T01:57:29.999Z,29.22
2019-03-12T01:58:29.972Z,29.31
2019-03-12T01:59:29.704Z,29.12
2019-03-12T02:00:29.935Z,29.22
2019-03-12T02:01:29.919Z,29.79
2019-03-12T02:02:29.897Z,30.91
2019-03-12T02:03:29.877Z,31.67
2019-03-12T02:04:29.862Z,31.2
2019-03-12T02:05:29.841Z,32.05
2019-03-12T02:06:29.912Z,32.53
2019-03-12T02:07:29.891Z,32.9
2019-03-12T02:08:29.789Z,32.71
2019-03-12T02:09:29.767Z,32.53
2019-03-12T02:10:29.747Z,32.71
2019-03-12T02:11:29.726Z,32.71
2019-03-12T02:12:29.714Z,32.62
2019-03-12T02:13:29.719Z,32.71
2019-03-12T02:14:29.671Z,32.53
2019-03-12T02:15:29.655Z,32.53
2019-03-12T02:16:29.636Z,32.62
2019-03-12T02:17:29.621Z,32.43
2019-03-12T02:18:29.598Z,32.53
2019-03-12T02:19:29.336Z,32.43
2019-03-12T02:20:29.562Z,32.43
2019-03-12T02:21:29.295Z,31.96
2019-03-12T02:22:29.524Z,31.86
2019-03-12T02:23:31.459Z,31.48
2019-03-12T02:24:29.484Z,31.67
2019-03-12T02:25:29.221Z,31.67
2019-03-12T02:26:29.448Z,31.86
2019-03-12T02:27:29.437Z,31.77
2019-03-12T02:28:29.171Z,32.05
2019-03-12T02:29:29.164Z,32.34
2019-03-12T02:30:29.387Z,32.43
2019-03-12T02:31:29.360Z,32.43
2019-03-12T02:32:29.339Z,32.53
2019-03-12T02:33:29.081Z,32.24
2019-03-12T02:34:29.306Z,32.43
2019-03-12T02:35:29.313Z,32.43
2019-03-12T02:36:29.267Z,32.05
2019-03-12T02:37:29.278Z,31.67
2019-03-12T02:38:28.979Z,31.1
2019-03-12T02:39:29.232Z,30.26
2019-03-12T02:40:29.197Z,30.16
2019-03-12T02:41:29.186Z,29.97
2019-03-12T02:42:29.159Z,29.5
2019-03-12T02:43:28.897Z,28.93
2019-03-12T02:44:29.116Z,28.65
2019-03-12T02:45:29.108Z,28.55
2019-03-12T02:46:29.084Z,28.27
2019-03-12T02:47:29.064Z,27.8
2019-03-12T02:48:29.048Z,27.42
2019-03-12T02:49:29.033Z,27.51
2019-03-12T02:50:28.760Z,27.51
2019-03-12T02:51:28.997Z,27.42
2019-03-12T02:52:28.968Z,27.51
2019-03-12T02:53:28.950Z,27.7
2019-03-12T02:54:28.966Z,27.42
2019-03-12T02:55:28.920Z,27.04
2019-03-12T02:56:28.897Z,26.85
2019-03-12T02:57:28.883Z,26.95
2019-03-12T02:58:28.867Z,26.19
2019-03-12T02:59:28.839Z,25.9
2019-03-12T03:00:28.824Z,25.52
2019-03-12T03:01:28.814Z,25.15
2019-03-12T03:02:28.789Z,25.05
2019-03-12T03:03:28.864Z,24.3
2019-03-12T03:04:28.768Z,24.11
2019-03-12T03:05:28.735Z,23.83
2019-03-12T03:06:28.719Z,24.21
2019-03-12T03:07:28.688Z,24.49
2019-03-12T03:08:28.676Z,24.3
2019-03-12T03:09:28.656Z,24.3
2019-03-12T03:10:28.649Z,25.05
2019-03-12T03:11:28.638Z,25.24
2019-03-12T03:12:28.608Z,25.43
2019-03-12T03:13:28.589Z,25.81
2019-03-12T03:14:28.567Z,26.38
2019-03-12T03:15:28.299Z,26.76
2019-03-12T03:16:28.534Z,27.14
2019-03-12T03:17:28.508Z,27.51
2019-03-12T03:18:28.496Z,27.7
2019-03-12T03:19:28.468Z,28.08
2019-03-12T03:20:28.450Z,28.27
2019-03-12T03:21:28.429Z,28.08
2019-03-12T03:22:28.415Z,28.55
2019-03-12T03:23:28.415Z,28.74
2019-03-12T03:24:28.381Z,29.03
2019-03-12T03:25:28.362Z,28.93
2019-03-12T03:26:28.343Z,29.03
2019-03-12T03:27:31.923Z,28.74
2019-03-12T03:28:28.307Z,28.84
2019-03-12T03:29:28.287Z,28.65
2019-03-12T03:30:28.288Z,28.17
2019-03-12T03:31:28.263Z,27.8
2019-03-12T03:32:28.235Z,27.98
2019-03-12T03:33:28.257Z,27.61
2019-03-12T03:34:31.263Z,27.14
2019-03-12T03:35:28.171Z,27.7
2019-03-12T03:36:28.169Z,27.89
2019-03-12T03:37:28.145Z,27.42
2019-03-12T03:38:28.138Z,27.51
2019-03-12T03:39:28.099Z,27.51
2019-03-12T03:40:28.134Z,27.51
2019-03-12T03:41:28.068Z,27.7
2019-03-12T03:42:28.057Z,27.51
2019-03-12T03:43:28.051Z,27.8
2019-03-12T03:44:28.024Z,27.51
2019-03-12T03:45:27.991Z,27.14
2019-03-12T03:46:27.977Z,27.23
2019-03-12T03:47:28.009Z,26.76
2019-03-12T03:48:27.934Z,26.47
2019-03-12T03:49:27.982Z,26.19
2019-03-12T03:50:27.917Z,26
2019-03-12T03:51:27.885Z,25.9
2019-03-12T03:52:27.875Z,26
2019-03-12T03:53:27.601Z,26.47
2019-03-12T03:54:27.825Z,26.66
2019-03-12T03:55:27.816Z,26.66
2019-03-12T03:56:27.786Z,26.47
2019-03-12T03:57:27.766Z,26
2019-03-12T03:58:27.754Z,25.62
2019-03-12T03:59:27.734Z,25.71
2019-03-12T04:00:27.722Z,25.71
2019-03-12T04:01:27.691Z,25.81
2019-03-12T04:02:27.673Z,25.9
2019-03-12T04:03:27.669Z,25.71
2019-03-12T04:04:27.699Z,26.09
2019-03-12T04:05:27.628Z,25.62
2019-03-12T04:06:27.612Z,25.24
2019-03-12T04:07:27.586Z,25.24
2019-03-12T04:08:27.567Z,25.24
2019-03-12T04:09:27.552Z,25.05
2019-03-12T04:10:27.529Z,25.34
2019-03-12T04:11:27.510Z,25.05
2019-03-12T04:12:27.497Z,25.05
2019-03-12T04:13:27.476Z,25.05
2019-03-12T04:14:27.454Z,25.81
2019-03-12T04:15:27.435Z,25.81
2019-03-12T04:16:27.417Z,25.81
2019-03-12T04:17:27.399Z,25.9
2019-03-12T04:18:27.382Z,26.09
2019-03-12T04:19:27.361Z,26.38
2019-03-12T04:20:27.342Z,26.28
2019-03-12T04:21:27.321Z,26.47
2019-03-12T04:22:27.060Z,26.57
2019-03-12T04:23:27.040Z,26.76
2019-03-12T04:24:27.329Z,27.04
2019-03-12T04:25:27.301Z,27.04
2019-03-12T04:26:27.316Z,27.04
2019-03-12T04:27:27.218Z,26.76
2019-03-12T04:28:27.194Z,26.85
2019-03-12T04:29:26.936Z,26.76
2019-03-12T04:30:27.155Z,26.76
2019-03-12T04:31:27.143Z,26.57
2019-03-12T04:32:27.122Z,26.76
2019-03-12T04:33:27.100Z,26.95
2019-03-12T04:34:26.869Z,27.51
2019-03-12T04:35:27.082Z,27.51
2019-03-12T04:36:27.052Z,27.8
2019-03-12T04:37:26.783Z,27.8
2019-03-12T04:38:27.010Z,28.36
2019-03-12T04:39:26.991Z,28.84
2019-03-12T04:40:26.971Z,28.74
2019-03-12T04:41:26.954Z,29.03
2019-03-12T04:42:26.930Z,29.03
2019-03-12T04:43:26.913Z,29.12
2019-03-12T04:44:26.963Z,29.03
2019-03-12T04:45:26.880Z,30.16
2019-03-12T04:46:26.861Z,30.26
2019-03-12T04:47:26.841Z,30.26
2019-03-12T04:48:26.574Z,30.07
2019-03-12T04:49:26.554Z,30.26
2019-03-12T04:50:26.783Z,30.35
2019-03-12T04:51:26.763Z,31.2
2019-03-12T04:52:26.503Z,31.96
2019-03-12T04:53:26.739Z,31.86
2019-03-12T04:54:26.714Z,32.24
2019-03-12T04:55:26.690Z,32.05
2019-03-12T04:56:26.427Z,31.86
2019-03-12T04:57:26.655Z,32.05
2019-03-12T04:58:26.395Z,32.24
2019-03-12T04:59:26.378Z,32.24
2019-03-12T05:00:26.364Z,32.34
2019-03-12T05:01:26.581Z,32.43
2019-03-12T05:02:26.575Z,32.34
2019-03-12T05:03:26.544Z,32.81
2019-03-12T05:04:26.527Z,32.9
2019-03-12T05:05:26.513Z,33.18
2019-03-12T05:06:26.492Z,33.56
2019-03-12T05:07:26.470Z,33.56
2019-03-12T05:08:26.453Z,33.75
2019-03-12T05:09:26.442Z,34.04
2019-03-12T05:10:26.422Z,34.89
2019-03-12T05:11:26.399Z,35.46
2019-03-12T05:12:26.381Z,36.31
2019-03-12T05:13:26.362Z,36.87
2019-03-12T05:14:26.344Z,37.06
2019-03-12T05:15:26.324Z,37.25
2019-03-12T05:16:26.306Z,37.73
2019-03-12T05:17:26.288Z,37.73
2019-03-12T05:18:26.269Z,38.2
2019-03-12T05:19:26.253Z,38.67
2019-03-12T05:20:26.235Z,38.86
2019-03-12T05:21:26.215Z,38.95
2019-03-12T05:22:26.199Z,38.86
2019-03-12T05:23:26.185Z,38.86
2019-03-12T05:24:26.158Z,39.05
2019-03-12T05:25:26.143Z,39.05
2019-03-12T05:26:26.127Z,39.14
2019-03-12T05:27:27.440Z,39.33
2019-03-12T05:28:26.089Z,39.33
2019-03-12T05:29:26.069Z,39.81
2019-03-12T05:30:26.048Z,40.09
2019-03-12T05:31:26.039Z,40.94
2019-03-12T05:32:26.013Z,40.56
2019-03-12T05:33:26.029Z,41.51
2019-03-12T05:34:25.739Z,42.55
2019-03-12T05:35:25.959Z,43.3
2019-03-12T05:36:25.939Z,43.77
2019-03-12T05:37:25.941Z,44.53
2019-03-12T05:38:25.902Z,45.01
2019-03-12T05:39:25.888Z,45.2
2019-03-12T05:40:25.867Z,45.1
2019-03-12T05:41:25.848Z,45.2
2019-03-12T05:42:25.828Z,44.82
2019-03-12T05:43:25.564Z,45.1
2019-03-12T05:44:25.567Z,45.1
2019-03-12T05:45:25.771Z,45.29
2019-03-12T05:46:25.756Z,45.48
2019-03-12T05:47:25.740Z,45.39
2019-03-12T05:48:25.718Z,45.48
2019-03-12T05:49:25.700Z,46.04
2019-03-12T05:50:25.746Z,47.18
2019-03-12T05:51:25.664Z,47.18
2019-03-12T05:52:25.649Z,46.61
2019-03-12T05:53:25.626Z,47.28
2019-03-12T05:54:25.370Z,47.28
2019-03-12T05:55:25.593Z,47.75
2019-03-12T05:56:25.573Z,48.13
2019-03-12T05:57:25.563Z,49.64
2019-03-12T05:58:25.538Z,50.96
2019-03-12T05:59:25.542Z,52.86
2019-03-12T06:00:25.522Z,52.95
2019-03-12T06:01:25.483Z,52.57
2019-03-12T06:02:25.473Z,52.95
2019-03-12T06:03:25.549Z,52.76
2019-03-12T06:04:25.446Z,52.95
2019-03-12T06:05:25.413Z,52.95
2019-03-12T06:06:25.392Z,53.05
2019-03-12T06:07:25.377Z,53.14
2019-03-12T06:08:25.360Z,53.61
2019-03-12T06:09:32.746Z,53.05
2019-03-12T06:10:25.317Z,53.14
2019-03-12T06:11:25.055Z,52.57
2019-03-12T06:12:25.047Z,53.23
2019-03-12T06:13:25.274Z,53.33
2019-03-12T06:14:25.328Z,54.08
2019-03-12T06:15:24.981Z,54.55
2019-03-12T06:16:25.207Z,54.84
2019-03-12T06:17:24.944Z,57.11
2019-03-12T06:18:25.171Z,57.3
2019-03-12T06:19:25.154Z,58.06
2019-03-12T06:20:25.147Z,57.96
2019-03-12T06:21:25.119Z,57.68
2019-03-12T06:22:25.099Z,59.09
2019-03-12T06:23:24.834Z,61.27
2019-03-12T06:24:25.114Z,62.59
2019-03-12T06:25:25.046Z,63.1
2019-03-12T06:26:25.026Z,64.11
2019-03-12T06:27:24.763Z,64.2
2019-03-12T06:28:24.987Z,64.9
2019-03-12T06:29:24.977Z,65.37
2019-03-12T06:30:28.162Z,65.28
2019-03-12T06:31:24.938Z,67.45
2019-03-12T06:32:24.919Z,68.59
2019-03-12T06:33:26.768Z,68.3
2019-03-12T06:34:24.881Z,67.64
2019-03-12T06:35:24.622Z,67.64
2019-03-12T06:36:24.848Z,68.68
2019-03-12T06:37:24.830Z,68.4
2019-03-12T06:38:24.810Z,67.83
2019-03-12T06:39:24.793Z,69.34
2019-03-12T06:40:24.776Z,75.59
2019-03-12T06:41:24.754Z,77.48
2019-03-12T06:42:25.039Z,77.76
2019-03-12T06:43:24.732Z,78.52
2019-03-12T06:44:24.702Z,78.42
2019-03-12T06:45:24.685Z,78.33
2019-03-12T06:46:24.423Z,80.51
2019-03-12T06:47:24.404Z,82.21
2019-03-12T06:48:24.640Z,82.87
2019-03-12T06:49:24.618Z,82.97
2019-03-12T06:50:24.595Z,83.82
2019-03-12T06:51:24.578Z,84.01
2019-03-12T06:52:24.558Z,83.25
2019-03-12T06:53:24.547Z,84.1
2019-03-12T06:54:24.526Z,85.99
2019-03-12T06:55:24.506Z,88.36
2019-03-12T06:56:24.491Z,89.59
2019-03-12T06:57:24.470Z,90.16
2019-03-12T06:58:24.459Z,89.59
2019-03-12T06:59:24.444Z,90.16
2019-03-12T07:00:24.416Z,90.72
2019-03-12T07:01:24.399Z,92.9
2019-03-12T07:02:24.382Z,91.29
2019-03-12T07:03:24.367Z,92.9
2019-03-12T07:04:24.351Z,97.34
2019-03-12T07:05:24.337Z,98.86
2019-03-12T07:06:24.315Z,97.63
2019-03-12T07:07:24.295Z,99.43
2019-03-12T07:08:24.280Z,98.58
2019-03-12T07:09:24.270Z,96.12
2019-03-12T07:10:24.244Z,94.74
2019-03-12T07:11:24.228Z,92.85
2019-03-12T07:12:23.961Z,94.18
2019-03-12T07:13:24.196Z,95.59
2019-03-12T07:14:25.301Z,98.06
2019-03-12T07:15:24.157Z,98.63
2019-03-12T07:16:24.137Z,99.76
2019-03-12T07:17:24.130Z,99.99
2019-03-12T07:18:24.107Z,99.99
2019-03-12T07:19:23.848Z,99.99
2019-03-12T07:20:24.073Z,99.99
2019-03-12T07:21:24.052Z,99.99
2019-03-12T07:22:24.032Z,99.99
2019-03-12T07:23:24.018Z,99.99
2019-03-12T07:24:23.998Z,99.99
2019-03-12T07:25:23.733Z,99.99
2019-03-12T07:26:23.963Z,99.99
2019-03-12T07:27:23.948Z,99.99
2019-03-12T07:28:23.932Z,99.99
2019-03-12T07:29:23.913Z,99.99
2019-03-12T07:30:23.895Z,99.99
2019-03-12T07:31:24.260Z,99.99
2019-03-12T07:32:23.613Z,99.99
2019-03-12T07:33:23.631Z,99.99
2019-03-12T07:34:35.841Z,99.99
2019-03-12T07:35:25.262Z,99.99
2019-03-12T07:36:23.792Z,99.99
2019-03-12T07:37:23.775Z,99.99
2019-03-12T07:38:23.764Z,99.99
2019-03-12T07:39:23.739Z,99.99
2019-03-12T07:40:23.726Z,99.99
2019-03-12T07:41:33.969Z,99.99
2019-03-12T07:42:23.695Z,99.99
2019-03-12T07:43:23.671Z,99.99
2019-03-12T07:44:23.670Z,99.99
2019-03-12T07:45:23.640Z,99.99
2019-03-12T07:46:23.631Z,99.99
2019-03-12T07:47:35.069Z,99.99
2019-03-12T07:48:23.591Z,99.99
2019-03-12T07:49:23.584Z,99.99
2019-03-12T07:50:23.558Z,99.99
2019-03-12T07:51:23.538Z,99.99
2019-03-12T07:52:23.520Z,99.99
2019-03-12T07:53:23.263Z,99.99
2019-03-12T07:54:23.487Z,99.99
2019-03-12T07:55:23.469Z,99.99
2019-03-12T07:56:23.456Z,99.99
2019-03-12T07:57:23.443Z,99.99
2019-03-12T07:58:35.085Z,99.99
2019-03-12T07:59:23.406Z,99.99
2019-03-12T08:00:23.387Z,99.99
2019-03-12T08:01:24.969Z,99.99
2019-03-12T08:02:23.353Z,99.99
2019-03-12T08:03:23.336Z,99.99
2019-03-12T08:04:23.319Z,99.99
2019-03-12T08:05:23.311Z,99.99
2019-03-12T08:06:23.286Z,99.99
2019-03-12T08:07:23.276Z,99.99
2019-03-12T08:08:23.357Z,99.99
2019-03-12T08:09:23.238Z,99.99
2019-03-12T08:10:23.225Z,99.99
2019-03-12T08:11:23.212Z,99.99
2019-03-12T08:12:23.188Z,99.99
2019-03-12T08:13:23.172Z,99.99
2019-03-12T08:14:23.167Z,99.99
2019-03-12T08:15:25.841Z,99.99
2019-03-12T08:16:23.128Z,99.99
2019-03-12T08:17:23.107Z,99.99
2019-03-12T08:18:23.095Z,99.99
2019-03-12T08:19:23.077Z,99.99
2019-03-12T08:20:23.062Z,99.99
2019-03-12T08:21:25.148Z,99.99
2019-03-12T08:22:23.026Z,99.99
2019-03-12T08:23:23.013Z,99.99
2019-03-12T08:24:22.999Z,99.99
2019-03-12T08:25:22.984Z,99.99
2019-03-12T08:26:22.968Z,99.99
2019-03-12T08:27:25.895Z,99.99
2019-03-12T08:28:22.935Z,99.99
2019-03-12T08:29:22.923Z,99.99
2019-03-12T08:30:22.898Z,99.99
2019-03-12T08:31:22.885Z,99.99
2019-03-12T08:32:26.106Z,99.99
2019-03-12T08:33:22.861Z,99.99
2019-03-12T08:34:22.835Z,99.99
2019-03-12T08:35:22.821Z,99.99
2019-03-12T08:36:22.805Z,99.99
2019-03-12T08:37:22.787Z,99.99
2019-03-12T08:38:22.527Z,99.99
2019-03-12T08:39:22.759Z,99.99
2019-03-12T08:40:22.738Z,99.99
2019-03-12T08:41:22.726Z,99.99
2019-03-12T08:42:22.709Z,99.99
2019-03-12T08:43:22.692Z,99.99
2019-03-12T08:44:22.679Z,99.99
2019-03-12T08:45:22.658Z,99.99
2019-03-12T08:46:24.776Z,99.99
2019-03-12T08:47:22.631Z,99.99
2019-03-12T08:48:22.609Z,99.99
2019-03-12T08:49:22.604Z,99.99
2019-03-12T08:50:22.577Z,99.99
2019-03-12T08:51:22.561Z,99.99
2019-03-12T08:52:22.548Z,99.99
2019-03-12T08:53:22.287Z,99.99
2019-03-12T08:54:24.022Z,99.99
2019-03-12T08:55:22.498Z,99.99
2019-03-12T08:56:22.576Z,99.99
2019-03-12T08:57:22.217Z,99.99
2019-03-12T08:58:22.449Z,99.99
2019-03-12T08:59:22.438Z,99.99
2019-03-12T09:00:24.084Z,99.99
2019-03-12T09:01:22.402Z,99.99
2019-03-12T09:02:22.388Z,99.99
2019-03-12T09:03:22.130Z,99.99
2019-03-12T09:04:22.357Z,99.99
2019-03-12T09:05:22.343Z,99.99
2019-03-12T09:06:22.327Z,99.99
2019-03-12T09:07:22.308Z,99.99
2019-03-12T09:08:22.292Z,99.99
2019-03-12T09:09:22.279Z,99.99
2019-03-12T09:10:22.263Z,99.99
2019-03-12T09:11:22.248Z,99.99
2019-03-12T09:12:22.234Z,99.99
2019-03-12T09:13:22.222Z,99.99
2019-03-12T09:14:22.201Z,99.99
2019-03-12T09:15:22.190Z,99.99
2019-03-12T09:16:22.185Z,99.99
2019-03-12T09:17:22.160Z,99.99
2019-03-12T09:18:22.165Z,99.99
2019-03-12T09:19:22.129Z,99.99
2019-03-12T09:20:22.112Z,99.99
2019-03-12T09:21:22.098Z,99.99
2019-03-12T09:22:22.091Z,99.99
2019-03-12T09:23:21.830Z,99.99
2019-03-12T09:24:22.058Z,99.99
2019-03-12T09:25:22.039Z,99.99
2019-03-12T09:26:22.032Z,99.99
2019-03-12T09:27:22.013Z,99.99
2019-03-12T09:28:22.103Z,99.99
2019-03-12T09:29:21.977Z,99.99
2019-03-12T09:30:21.968Z,99.99
2019-03-12T09:31:21.953Z,99.99
2019-03-12T09:32:21.939Z,99.99
2019-03-12T09:33:21.930Z,99.99
2019-03-12T09:34:21.910Z,99.99
2019-03-12T09:35:21.893Z,99.99
2019-03-12T09:36:21.633Z,99.99
2019-03-12T09:37:21.620Z,99.99
2019-03-12T09:38:21.853Z,99.99
2019-03-12T09:39:21.838Z,99.99
2019-03-12T09:40:21.818Z,99.99
2019-03-12T09:41:21.810Z,99.99
2019-03-12T09:42:21.571Z,99.99
2019-03-12T09:43:21.775Z,99.99
2019-03-12T09:44:21.758Z,99.99
2019-03-12T09:45:21.743Z,99.99
2019-03-12T09:46:21.728Z,99.99
2019-03-12T09:47:21.712Z,99.99
2019-03-12T09:48:21.709Z,99.99
2019-03-12T09:49:21.686Z,99.99
2019-03-12T09:50:21.671Z,99.99
2019-03-12T09:51:21.653Z,99.99
2019-03-12T09:52:21.637Z,99.99
2019-03-12T09:53:21.622Z,99.99
2019-03-12T09:54:21.694Z,99.99
2019-03-12T09:55:21.591Z,99.99
2019-03-12T09:56:21.576Z,99.99
2019-03-12T09:57:21.571Z,99.99
2019-03-12T09:58:21.299Z,99.99
2019-03-12T09:59:21.549Z,99.99
2019-03-12T10:00:21.512Z,99.99
2019-03-12T10:01:21.498Z,99.99
2019-03-12T10:02:21.483Z,99.99
2019-03-12T10:03:21.467Z,99.99
2019-03-12T10:04:21.715Z,99.99
2019-03-12T10:05:21.440Z,99.99
2019-03-12T10:06:21.422Z,99.99
2019-03-12T10:07:21.409Z,99.99
2019-03-12T10:08:21.147Z,99.99
2019-03-12T10:09:21.377Z,99.99
2019-03-12T10:10:21.493Z,99.99
2019-03-12T10:11:21.352Z,99.99
2019-03-12T10:12:21.332Z,99.99
2019-03-12T10:13:21.318Z,99.99
2019-03-12T10:14:21.301Z,99.99
2019-03-12T10:15:21.287Z,99.99
2019-03-12T10:16:21.272Z,99.99
2019-03-12T10:17:21.257Z,99.99
2019-03-12T10:18:21.243Z,99.99
2019-03-12T10:19:21.228Z,99.99
2019-03-12T10:20:21.213Z,99.99
2019-03-12T10:21:21.193Z,99.99
2019-03-12T10:22:21.183Z,99.99
2019-03-12T10:23:21.167Z,99.99
2019-03-12T10:24:21.148Z,99.99
2019-03-12T10:25:21.162Z,99.99
2019-03-12T10:26:21.125Z,99.99
2019-03-12T10:27:21.103Z,99.99
2019-03-12T10:28:21.092Z,99.99
2019-03-12T10:29:21.071Z,99.99
2019-03-12T10:30:21.159Z,99.99
2019-03-12T10:31:21.042Z,99.99
2019-03-12T10:32:21.104Z,99.99
2019-03-12T10:33:21.020Z,99.99
2019-03-12T10:34:31.606Z,99.99
2019-03-12T10:35:20.986Z,99.99
2019-03-12T10:36:21.030Z,99.99
2019-03-12T10:37:20.951Z,99.99
2019-03-12T10:38:20.934Z,99.99
2019-03-12T10:39:20.918Z,99.99
2019-03-12T10:40:20.907Z,99.99
2019-03-12T10:41:20.890Z,99.99
2019-03-12T10:42:20.879Z,99.99
2019-03-12T10:43:20.859Z,99.99
2019-03-12T10:44:20.851Z,99.99
2019-03-12T10:45:20.832Z,99.99
2019-03-12T10:46:20.814Z,99.99
2019-03-12T10:47:20.800Z,99.99
2019-03-12T10:48:20.783Z,99.99
2019-03-12T10:49:20.769Z,99.99
2019-03-12T10:50:20.759Z,99.99
2019-03-12T10:51:20.738Z,99.99
2019-03-12T10:52:20.725Z,99.99
2019-03-12T10:53:20.711Z,99.99
2019-03-12T10:54:20.696Z,99.99
2019-03-12T10:55:20.677Z,99.99
2019-03-12T10:56:20.666Z,99.99
2019-03-12T10:57:23.905Z,99.99
2019-03-12T10:58:20.388Z,99.99
2019-03-12T10:59:20.620Z,99.99
2019-03-12T11:00:20.357Z,99.99
2019-03-12T11:01:20.592Z,99.99
2019-03-12T11:02:20.573Z,99.99
2019-03-12T11:03:20.557Z,99.99
2019-03-12T11:04:20.541Z,99.99
2019-03-12T11:05:20.534Z,99.99
2019-03-12T11:06:20.511Z,99.99
2019-03-12T11:07:20.513Z,99.99
2019-03-12T11:08:20.479Z,99.99
2019-03-12T11:09:20.469Z,99.99
2019-03-12T11:10:20.472Z,99.99
2019-03-12T11:11:20.438Z,99.99
2019-03-12T11:12:20.424Z,99.99
2019-03-12T11:13:20.409Z,99.99
2019-03-12T11:14:20.390Z,99.99
2019-03-12T11:15:20.373Z,99.99
2019-03-12T11:16:20.363Z,99.99
2019-03-12T11:17:20.119Z,99.99
2019-03-12T11:18:20.095Z,99.99
2019-03-12T11:19:20.313Z,99.99
2019-03-12T11:20:20.305Z,99.99
2019-03-12T11:21:20.292Z,99.99
2019-03-12T11:22:20.322Z,99.99
2019-03-12T11:23:20.265Z,99.99
2019-03-12T11:24:20.244Z,99.99
2019-03-12T11:25:29.828Z,99.99
2019-03-12T11:26:20.222Z,99.99
2019-03-12T11:27:20.195Z,99.99
2019-03-12T11:28:20.179Z,99.99
2019-03-12T11:29:20.163Z,96.36
2019-03-12T11:30:20.171Z,96.08
2019-03-12T11:31:19.961Z,98.63
2019-03-12T11:32:20.121Z,99.96
2019-03-12T11:33:20.115Z,94.93
2019-03-12T11:34:19.878Z,94.18
2019-03-12T11:35:19.845Z,97.21
2019-03-12T11:36:20.100Z,99.77
2019-03-12T11:37:19.828Z,99.99
2019-03-12T11:38:20.063Z,99.99
2019-03-12T11:39:20.019Z,97.02
2019-03-12T11:40:20.022Z,99.99
2019-03-12T11:41:20.004Z,96.55
2019-03-12T11:42:19.972Z,92.76
2019-03-12T11:43:20.058Z,94.56
2019-03-12T11:44:19.959Z,98.92
2019-03-12T11:45:35.211Z,92.94
2019-03-12T11:46:19.914Z,96.83
2019-03-12T11:47:19.896Z,98.63
2019-03-12T11:48:19.904Z,99.87
2019-03-12T11:49:20.122Z,98.44
2019-03-12T11:50:20.332Z,99.99
2019-03-12T11:51:20.198Z,99.77
2019-03-12T11:52:19.934Z,99.99
2019-03-12T11:53:19.804Z,99.99
2019-03-12T11:54:19.915Z,98.82
2019-03-12T11:55:19.957Z,99.2
2019-03-12T11:56:19.588Z,94.93
2019-03-12T11:57:19.896Z,96.64
2019-03-12T11:58:19.931Z,98.54
2019-03-12T11:59:19.784Z,97.02
2019-03-12T12:00:21.897Z,99.99
2019-03-12T12:01:19.687Z,99.3
2019-03-12T12:02:19.671Z,99.99
2019-03-12T12:03:19.654Z,99.99
2019-03-12T12:04:19.395Z,96.73
2019-03-12T12:05:19.627Z,98.44
2019-03-12T12:06:19.649Z,91.71
2019-03-12T12:07:19.607Z,86.97
2019-03-12T12:08:19.583Z,88.01
2019-03-12T12:09:19.579Z,92.09
2019-03-12T12:10:19.563Z,95.5
2019-03-12T12:11:19.541Z,95.79
2019-03-12T12:12:19.523Z,91.94
2019-03-12T12:13:19.510Z,91.52
2019-03-12T12:14:19.495Z,98.07
2019-03-12T12:15:19.481Z,95.79
2019-03-12T12:16:19.468Z,95.98
2019-03-12T12:17:19.452Z,96.73
2019-03-12T12:18:19.439Z,95.22
2019-03-12T12:19:19.422Z,93.41
2019-03-12T12:20:31.809Z,98.3
2019-03-12T12:21:19.394Z,99.34
2019-03-12T12:22:19.378Z,99.99
2019-03-12T12:23:19.367Z,99.99
2019-03-12T12:24:19.199Z,99.99
2019-03-12T12:25:19.333Z,99.99
2019-03-12T12:26:19.321Z,99.99
2019-03-12T12:27:19.307Z,99.99
2019-03-12T12:28:19.291Z,99.99
2019-03-12T12:29:19.274Z,99.99
2019-03-12T12:30:19.261Z,99.99
2019-03-12T12:31:19.243Z,99.99
2019-03-12T12:32:19.230Z,99.99
2019-03-12T12:33:19.212Z,99.99
2019-03-12T12:34:19.205Z,99.99
2019-03-12T12:35:19.184Z,97.83
2019-03-12T12:36:19.182Z,94.13
2019-03-12T12:37:19.154Z,94.6
2019-03-12T12:38:19.138Z,99.34
2019-03-12T12:39:19.123Z,99.53
2019-03-12T12:40:19.108Z,99.99
2019-03-12T12:41:19.094Z,98.39
2019-03-12T12:42:19.079Z,96.41
2019-03-12T12:43:19.063Z,92.9
2019-03-12T12:44:19.047Z,93.65
2019-03-12T12:45:18.785Z,94.6
2019-03-12T12:46:19.017Z,94.13
2019-03-12T12:47:19.001Z,92.9
2019-03-12T12:48:18.986Z,92.71
2019-03-12T12:49:18.973Z,91.95
2019-03-12T12:50:18.958Z,91.85
2019-03-12T12:51:18.775Z,90.05
2019-03-12T12:52:18.938Z,93.65
2019-03-12T12:53:18.911Z,92.33
2019-03-12T12:54:18.905Z,91.95
2019-03-12T12:55:18.890Z,94.42